createdAt,value
2018-03-31T00:01:36.274Z,86.50
2018-03-31T00:06:29.116Z,86.50
2018-03-31T00:11:22.251Z,86.70
2018-03-31T00:16:15.324Z,86.80
2018-03-31T00:21:08.169Z,87.40
2018-03-31T00:26:01.309Z,86.80
2018-03-31T00:30:54.906Z,88.10
2018-03-31T00:35:48.837Z,87.60
2018-03-31T00:40:41.711Z,87.40
2018-03-31T00:45:34.516Z,87.90
2018-03-31T00:50:28.108Z,89.60
2018-03-31T00:55:21.698Z,89.20
2018-03-31T01:00:15.298Z,89.60
2018-03-31T01:05:08.117Z,89.60
2018-03-31T01:10:00.972Z,90.00
2018-03-31T01:14:53.824Z,90.40
2018-03-31T01:19:46.650Z,90.60
2018-03-31T01:24:40.334Z,90.90
2018-03-31T01:29:33.929Z,90.90
2018-03-31T01:34:26.762Z,90.90
2018-03-31T01:39:19.584Z,91.20
2018-03-31T01:44:12.396Z,91.60
2018-03-31T01:49:05.227Z,91.80
2018-03-31T01:53:58.055Z,91.80
2018-03-31T01:58:52.077Z,92.60
2018-03-31T02:03:44.892Z,92.50
2018-03-31T02:08:37.722Z,92.80
2018-03-31T02:13:30.546Z,92.80
2018-03-31T02:18:24.163Z,93.30
2018-03-31T02:23:16.998Z,93.30
2018-03-31T02:28:10.604Z,93.70
2018-03-31T02:33:03.421Z,93.70
2018-03-31T02:37:56.294Z,93.80
2018-03-31T02:42:49.131Z,94.10
2018-03-31T02:47:42.137Z,94.00
2018-03-31T02:52:34.956Z,94.40
2018-03-31T02:57:27.559Z,94.20
2018-03-31T03:02:20.405Z,94.40
2018-03-31T03:07:13.243Z,94.80
2018-03-31T03:12:06.074Z,94.80
2018-03-31T03:16:59.664Z,95.80
2018-03-31T03:21:53.247Z,95.70
2018-03-31T03:26:46.860Z,95.50
2018-03-31T03:31:39.698Z,95.50
2018-03-31T03:36:33.310Z,95.70
2018-03-31T03:41:26.138Z,95.70
2018-03-31T03:46:19.743Z,96.10
2018-03-31T03:51:12.570Z,96.00
2018-03-31T03:56:05.446Z,95.90
2018-03-31T04:00:58.287Z,95.60
2018-03-31T04:05:51.129Z,95.60
2018-03-31T04:10:43.969Z,95.60
2018-03-31T04:15:37.393Z,95.90
2018-03-31T04:20:30.239Z,95.50
2018-03-31T04:25:23.218Z,95.70
2018-03-31T04:30:16.061Z,95.90
2018-03-31T04:35:08.897Z,96.20
2018-03-31T04:40:01.740Z,96.20
2018-03-31T04:44:54.758Z,96.10
2018-03-31T04:49:48.370Z,96.70
2018-03-31T04:54:41.231Z,96.70
2018-03-31T04:59:34.122Z,96.50
2018-03-31T05:04:26.738Z,96.40
2018-03-31T05:09:20.357Z,96.70
2018-03-31T05:14:12.954Z,96.70
2018-03-31T05:19:06.469Z,96.70
2018-03-31T05:23:59.317Z,96.70
2018-03-31T05:28:52.707Z,96.30
2018-03-31T05:33:46.314Z,96.20
2018-03-31T05:38:39.162Z,96.20
2018-03-31T05:43:32.766Z,96.40
2018-03-31T05:48:25.600Z,96.40
2018-03-31T05:53:19.207Z,95.50
2018-03-31T05:58:12.039Z,95.50
2018-03-31T06:03:04.879Z,95.00
2018-03-31T06:07:57.728Z,94.50
2018-03-31T06:12:50.570Z,94.20
2018-03-31T06:17:43.404Z,93.80
2018-03-31T06:22:36.229Z,93.20
2018-03-31T06:27:29.091Z,92.70
2018-03-31T06:32:21.684Z,92.10
2018-03-31T06:37:14.542Z,91.30
2018-03-31T06:42:07.392Z,89.20
2018-03-31T06:47:00.246Z,86.80
2018-03-31T06:51:53.874Z,85.40
2018-03-31T06:56:46.498Z,80.70
2018-03-31T07:01:39.373Z,74.80
2018-03-31T07:06:32.224Z,63.70
2018-03-31T07:11:26.757Z,55.90
2018-03-31T07:16:19.720Z,49.20
2018-03-31T07:21:12.652Z,47.00
2018-03-31T07:26:05.517Z,43.40
2018-03-31T07:30:59.135Z,42.80
2018-03-31T07:35:51.996Z,42.80
2018-03-31T07:40:45.057Z,43.00
2018-03-31T07:45:38.033Z,42.20
2018-03-31T07:50:31.114Z,41.90
2018-03-31T07:55:24.093Z,41.00
2018-03-31T08:00:17.369Z,39.30
2018-03-31T08:05:10.204Z,37.30
2018-03-31T08:10:03.095Z,34.20
2018-03-31T08:14:55.926Z,32.90
2018-03-31T08:19:49.566Z,28.20
2018-03-31T08:24:42.601Z,28.00
2018-03-31T08:29:35.465Z,26.30
2018-03-31T08:34:29.258Z,23.70
2018-03-31T08:39:22.101Z,23.60
2018-03-31T08:44:15.270Z,22.40
2018-03-31T08:49:08.406Z,21.10
2018-03-31T08:54:01.721Z,20.40
2018-03-31T08:58:55.191Z,18.60
2018-03-31T09:03:48.290Z,17.30
2018-03-31T09:08:41.399Z,16.60
2018-03-31T09:13:35.318Z,15.40
2018-03-31T09:18:28.494Z,15.30
2018-03-31T09:23:21.601Z,15.40
2018-03-31T09:28:14.723Z,14.80
2018-03-31T09:33:07.852Z,14.00
2018-03-31T09:38:01.016Z,12.50
2018-03-31T09:42:54.137Z,11.90
2018-03-31T09:47:47.309Z,11.40
2018-03-31T09:52:40.450Z,11.90
2018-03-31T09:57:33.570Z,12.30
2018-03-31T10:02:26.686Z,15.00
2018-03-31T10:07:19.816Z,17.70
2018-03-31T10:12:12.685Z,20.50
2018-03-31T10:17:05.575Z,22.90
2018-03-31T10:21:59.201Z,26.50
2018-03-31T10:26:52.061Z,26.30
2018-03-31T10:31:44.894Z,27.30
2018-03-31T10:36:37.743Z,27.50
2018-03-31T10:41:30.956Z,28.80
2018-03-31T10:46:24.639Z,31.70
2018-03-31T10:51:17.654Z,31.50
2018-03-31T10:56:10.483Z,32.40
2018-03-31T11:01:03.376Z,32.80
2018-03-31T11:05:56.262Z,34.10
2018-03-31T11:10:49.106Z,34.60
2018-03-31T11:15:42.112Z,34.60
2018-03-31T11:20:35.129Z,34.40
2018-03-31T11:25:27.980Z,34.20
2018-03-31T11:30:21.600Z,33.90
2018-03-31T11:35:14.468Z,33.80
2018-03-31T11:40:07.340Z,33.00
2018-03-31T11:45:00.208Z,32.60
2018-03-31T11:49:53.073Z,32.00
2018-03-31T11:54:45.934Z,32.30
2018-03-31T11:59:38.789Z,32.40
2018-03-31T12:04:31.656Z,33.00
2018-03-31T12:09:24.472Z,33.50
2018-03-31T12:14:17.330Z,34.00
2018-03-31T12:19:10.213Z,34.70
2018-03-31T12:24:03.069Z,33.70
2018-03-31T12:28:55.945Z,34.20
2018-03-31T12:33:48.784Z,34.40
2018-03-31T12:38:41.654Z,34.70
2018-03-31T12:43:34.533Z,35.00
2018-03-31T12:48:27.615Z,35.50
2018-03-31T12:53:20.621Z,35.50
2018-03-31T12:58:13.485Z,35.10
2018-03-31T13:03:07.089Z,36.40
2018-03-31T13:07:59.974Z,35.70
2018-03-31T13:12:52.878Z,36.50
2018-03-31T13:17:45.729Z,37.60
2018-03-31T13:22:38.654Z,37.60
2018-03-31T13:27:31.544Z,36.90
2018-03-31T13:32:24.411Z,37.20
2018-03-31T13:37:17.272Z,37.60
2018-03-31T13:42:09.902Z,38.10
2018-03-31T13:47:03.538Z,38.70
2018-03-31T13:51:56.392Z,38.70
2018-03-31T13:56:49.266Z,38.80
2018-03-31T14:01:42.142Z,39.50
2018-03-31T14:06:34.970Z,39.70
2018-03-31T14:11:27.864Z,38.90
2018-03-31T14:16:20.736Z,39.00
2018-03-31T14:21:13.593Z,39.30
2018-03-31T14:26:06.460Z,39.50
2018-03-31T14:30:59.324Z,40.10
2018-03-31T14:35:52.197Z,39.50
2018-03-31T14:40:45.090Z,40.30
2018-03-31T14:45:37.952Z,39.60
2018-03-31T14:50:30.886Z,39.30
2018-03-31T14:55:23.820Z,39.30
2018-03-31T15:00:16.811Z,40.50
2018-03-31T15:05:09.688Z,40.90
2018-03-31T15:10:02.374Z,42.30
2018-03-31T15:14:55.240Z,43.20
2018-03-31T15:19:48.187Z,43.20
2018-03-31T15:24:41.053Z,43.40
2018-03-31T15:29:34.861Z,42.60
2018-03-31T15:34:27.700Z,42.50
2018-03-31T15:39:20.561Z,41.10
2018-03-31T15:44:14.179Z,39.70
2018-03-31T15:49:07.017Z,39.70
2018-03-31T15:53:59.859Z,39.80
2018-03-31T15:58:52.748Z,40.10
2018-03-31T16:03:46.345Z,41.10
2018-03-31T16:08:39.211Z,41.10
2018-03-31T16:13:32.104Z,41.90
2018-03-31T16:18:25.216Z,42.50
2018-03-31T16:23:19.575Z,43.30
2018-03-31T16:28:12.413Z,43.20
2018-03-31T16:33:05.266Z,43.20
2018-03-31T16:37:58.860Z,43.00
2018-03-31T16:42:52.480Z,43.00
2018-03-31T16:47:45.350Z,42.90
2018-03-31T16:52:38.225Z,43.50
2018-03-31T16:57:30.843Z,44.90
2018-03-31T17:02:24.472Z,45.90
2018-03-31T17:07:17.554Z,45.80
2018-03-31T17:12:10.398Z,46.60
2018-03-31T17:17:03.024Z,46.90
2018-03-31T17:21:56.655Z,48.30
2018-03-31T17:26:49.508Z,48.20
2018-03-31T17:31:42.381Z,49.40
2018-03-31T17:36:35.447Z,50.00
2018-03-31T17:41:28.478Z,50.60
2018-03-31T17:46:22.109Z,51.10
2018-03-31T17:51:14.972Z,51.10
2018-03-31T17:56:07.828Z,51.50
2018-03-31T18:01:00.703Z,52.00
2018-03-31T18:05:54.505Z,52.30
2018-03-31T18:10:47.371Z,52.30
2018-03-31T18:15:40.386Z,52.40
2018-03-31T18:20:33.552Z,52.60
2018-03-31T18:25:26.397Z,52.70
2018-03-31T18:30:19.361Z,54.10
2018-03-31T18:35:12.241Z,53.40
2018-03-31T18:40:06.588Z,54.10
2018-03-31T18:44:59.424Z,54.10
2018-03-31T18:49:52.273Z,54.50
2018-03-31T18:54:45.312Z,54.60
2018-03-31T18:59:38.304Z,54.60
2018-03-31T19:04:31.164Z,54.90
2018-03-31T19:09:24.784Z,54.60
2018-03-31T19:14:17.630Z,54.60
2018-03-31T19:19:10.692Z,55.10
2018-03-31T19:24:04.353Z,56.60
2018-03-31T19:28:57.461Z,56.50
2018-03-31T19:33:50.303Z,58.30
2018-03-31T19:38:43.268Z,59.90
2018-03-31T19:43:36.157Z,63.00
2018-03-31T19:48:29.159Z,64.30
2018-03-31T19:53:22.294Z,66.80
2018-03-31T19:58:15.295Z,69.10
2018-03-31T20:03:08.127Z,73.30
2018-03-31T20:08:00.960Z,74.70
2018-03-31T20:12:54.537Z,80.60
2018-03-31T20:17:48.157Z,82.20
2018-03-31T20:22:41.025Z,82.20
2018-03-31T20:27:33.857Z,82.40
2018-03-31T20:32:27.475Z,86.70
2018-03-31T20:37:20.342Z,86.70
2018-03-31T20:42:13.171Z,86.80
2018-03-31T20:47:06.829Z,85.50
2018-03-31T20:51:59.686Z,85.40
2018-03-31T20:56:52.603Z,86.20
2018-03-31T21:01:45.462Z,86.80
2018-03-31T21:06:39.080Z,87.60
2018-03-31T21:11:31.906Z,87.60
2018-03-31T21:16:25.539Z,86.70
2018-03-31T21:21:18.442Z,86.70
2018-03-31T21:26:11.288Z,86.90
2018-03-31T21:31:04.134Z,88.00
2018-03-31T21:35:56.971Z,87.60
2018-03-31T21:40:49.812Z,87.30
2018-03-31T21:45:42.657Z,87.00
2018-03-31T21:50:35.281Z,90.10
2018-03-31T21:55:29.264Z,90.60
2018-03-31T22:00:21.880Z,90.60
2018-03-31T22:05:14.722Z,90.40
2018-03-31T22:10:07.542Z,88.60
2018-03-31T22:15:06.737Z,89.70
2018-03-31T22:20:00.382Z,89.10
2018-03-31T22:24:53.238Z,89.00
2018-03-31T22:29:46.090Z,89.50
2018-03-31T22:34:38.962Z,89.30
2018-03-31T22:39:31.783Z,90.00
2018-03-31T22:44:25.033Z,89.00
2018-03-31T22:49:17.968Z,89.90
2018-03-31T22:54:10.832Z,90.50
2018-03-31T22:59:04.448Z,90.50
2018-03-31T23:03:57.519Z,90.50
2018-03-31T23:08:50.333Z,90.00
2018-03-31T23:13:43.978Z,90.50
2018-03-31T23:18:36.807Z,90.10
2018-03-31T23:23:29.762Z,89.50
2018-03-31T23:28:23.410Z,90.70
2018-03-31T23:33:16.284Z,90.70
2018-03-31T23:38:09.125Z,90.90
2018-03-31T23:43:01.978Z,91.70
2018-03-31T23:47:54.827Z,91.10
2018-03-31T23:52:48.541Z,90.80
2018-03-31T23:57:41.373Z,90.80
